Terminal Aerodrome Forecast
Issued by NWS

Home | Current Version | Previous Version | Graphics & Text | Print | Product List | Glossary On
Versions: 1 2 3 4 5 6 7 8 9 10 11 12 13 14 15 16 17
981
FTUS43 KMPX 280322 AAA
TAFAXN
TAF AMD
KAXN 280322Z 2803/2824 02011KT P6SM BKN015 OVC025
     FM281000 01007KT P6SM BKN025 OVC050
     FM281600 03008KT P6SM SKC=

USA.gov is the U.S. government's official web portal to all federal, state and local government web resources and services.